Bookmark and Share
Track history (hours):
 

MSC Clorinda

Last reported at 2014-Apr-12 03:33 UTC. Time now 2014-Apr-17 00:58 UTC.
Position N 23°55' E 120°02'.

Length 366 m; draft 10.2 m.

Type: Ship (hazmat cat A). MMSI: 373233000.

NotesDate/timePositionNaut miles runAvg speedWind from/ knotsBaromVisibWave heightAir tempDewpointWater temp
2014-Apr-12 03:33N 23°55' E 120°02'1413.8
2014-Apr-12 02:33N 23°41' E 119°56'1414.4
2014-Apr-12 01:33N 23°28' E 119°51'1514.8
2014-Apr-12 00:33N 23°14' E 119°45'1717.4
2014-Apr-11 23:34N 23°02' E 119°32'1514.6
2014-Apr-11 22:31N 22°51' E 119°20'1515.6
2014-Apr-11 21:33N 22°41' E 119°08'8814.2
2014-Apr-11 15:23N 22°10' E 117°39'1314.8
2014-Apr-11 14:28N 22°09' E 117°25'1614.6
2014-Apr-11 13:24N 22°08' E 117°08'1214.6
2014-Apr-11 12:33N 22°08' E 116°55'1615.3
2014-Apr-11 11:32N 22°06' E 116°38'14914.7
2014-Apr-11 01:25N 21°59' E 113°58'1011.6
2014-Apr-11 00:34N 22°07' E 113°51'1010.3
2014-Apr-10 23:34N 22°17' E 113°48'1110.3
2014-Apr-10 22:28N 22°27' E 113°53'0 0.1
2014-Apr-10 21:22N 22°28' E 113°53'0 0.0
2014-Apr-10 20:28N 22°28' E 113°53'0 0.0
2014-Apr-10 19:28N 22°28' E 113°53'0 0.0
2014-Apr-10 18:22N 22°28' E 113°53'0 0.0
2014-Apr-10 17:16N 22°28' E 113°53'0 0.0
2014-Apr-10 16:28N 22°28' E 113°53'0 0.0
2014-Apr-10 15:28N 22°28' E 113°53'0 0.0
2014-Apr-10 14:22N 22°28' E 113°53'0 0.0
2014-Apr-10 13:22N 22°28' E 113°53'0 0.0
2014-Apr-10 12:22N 22°28' E 113°53'0 0.0
2014-Apr-10 11:28N 22°28' E 113°53'0 0.0
2014-Apr-10 10:16N 22°28' E 113°53'0 0.0
2014-Apr-10 09:16N 22°28' E 113°53'0 0.0
2014-Apr-10 08:28N 22°28' E 113°53'0 0.0
2014-Apr-10 07:22N 22°28' E 113°53'0 0.0
2014-Apr-10 06:28N 22°28' E 113°53'0 0.0
2014-Apr-10 05:22N 22°28' E 113°53'0 0.0
2014-Apr-10 04:28N 22°28' E 113°53'0 0.0
2014-Apr-10 03:28N 22°28' E 113°53'0 0.0
2014-Apr-10 02:28N 22°28' E 113°53'4 3.9
2014-Apr-10 01:33N 22°24' E 113°51'1312.9
2014-Apr-10 00:33N 22°12' E 113°50'9 8.8
2014-Apr-09 23:33N 22°03' E 113°51'3 3.0
2014-Apr-09 22:28N 22°01' E 113°54'0 0.0
2014-Apr-09 21:04N 22°01' E 113°54'0 0.0
2014-Apr-09 20:28N 22°01' E 113°54'0 0.0
2014-Apr-09 19:28N 22°01' E 113°54'0 0.0
2014-Apr-09 18:28N 22°01' E 113°54'0 0.1
2014-Apr-09 17:22N 22°01' E 113°54'0 0.0
2014-Apr-09 16:28N 22°01' E 113°54'2 1.6
2014-Apr-09 15:33N 22°01' E 113°52'1312.7
2014-Apr-09 14:33N 22°13' E 113°49'1514.8
2014-Apr-09 13:33N 22°28' E 113°45'11 3.5
2014-Apr-09 10:20N 22°39' E 113°41'0 0.0
2014-Apr-09 04:14N 22°39' E 113°41'1 1.5
2014-Apr-09 03:33N 22°38' E 113°42'1212.4
2014-Apr-09 02:33N 22°26' E 113°45'1514.9
2014-Apr-09 01:33N 22°12' E 113°50'1010.1
2014-Apr-09 00:32N 22°01' E 113°51'1312.1
2014-Apr-08 23:28N 21°48' E 113°51'  
2014-Apr-04 19:32N 01°14' E 103°59'1010.3
2014-Apr-04 18:33N 01°12' E 103°49'5 5.2
2014-Apr-04 17:31N 01°16' E 103°46'0 0.0
2014-Apr-04 16:31N 01°16' E 103°46'0 0.0
2014-Apr-04 15:31N 01°16' E 103°46'0 0.0
2014-Apr-04 14:31N 01°16' E 103°46'0 0.0
2014-Apr-04 13:28N 01°16' E 103°46'0 0.0
2014-Apr-04 12:31N 01°16' E 103°46'0 0.0
2014-Apr-04 11:31N 01°16' E 103°46'0 0.0
2014-Apr-04 10:31N 01°16' E 103°46'0 0.0
2014-Apr-04 09:32N 01°16' E 103°46'0 0.0
2014-Apr-04 08:28N 01°16' E 103°46'0 0.0
2014-Apr-04 07:29N 01°16' E 103°46'0 0.0
2014-Apr-04 06:31N 01°16' E 103°46'0 0.0
2014-Apr-04 05:31N 01°16' E 103°46'0 0.0
2014-Apr-04 04:28N 01°16' E 103°46'0 0.0
2014-Apr-04 03:28N 01°16' E 103°46'0 0.0
2014-Apr-04 02:25N 01°16' E 103°46'0 0.0
2014-Apr-04 01:31N 01°16' E 103°46'0 0.0
2014-Apr-04 00:31N 01°16' E 103°46'0 0.0
2014-Apr-03 23:31N 01°16' E 103°46'0 0.0
2014-Apr-03 22:28N 01°16' E 103°46'0 0.0
2014-Apr-03 21:31N 01°16' E 103°46'0 0.0
2014-Apr-03 20:25N 01°16' E 103°46'0 0.0
2014-Apr-03 19:28N 01°16' E 103°46'0 0.0
2014-Apr-03 18:31N 01°16' E 103°46'0 0.0
2014-Apr-03 17:28N 01°16' E 103°46'0 0.0
2014-Apr-03 16:25N 01°16' E 103°46'0 0.0
2014-Apr-03 15:31N 01°16' E 103°46'0 0.0
2014-Apr-03 14:31N 01°16' E 103°46'0 0.0
2014-Apr-03 13:31N 01°16' E 103°46'0 0.0
2014-Apr-03 12:31N 01°16' E 103°46'0 0.0
2014-Apr-03 11:31N 01°16' E 103°46'0 0.0
2014-Apr-03 10:31N 01°16' E 103°46'0 0.0
2014-Apr-03 09:28N 01°16' E 103°46'0 0.0
2014-Apr-03 08:31N 01°16' E 103°46'0 0.0
2014-Apr-03 07:31N 01°16' E 103°46'0 0.0
2014-Apr-03 06:31N 01°16' E 103°46'2 2.1
2014-Apr-03 05:31N 01°15' E 103°47'0 0.1
2014-Apr-03 04:31N 01°15' E 103°47'5 5.3
2014-Apr-03 03:33N 01°14' E 103°42'9 8.7
2014-Apr-03 02:34N 01°11' E 103°34'10 9.4
2014-Apr-03 01:30N 01°13' E 103°24'1413.7
2014-Apr-03 00:28N 01°22' E 103°13'  

Dump ship's entire track history

sailing weather and tide predictions

MSC Clorinda — 3FDW7 — position and weather